OERKOEPA

Guest
Details From OERK - Riyadh King Khaled Intl
To OEPA - QAISUMAH
Flight Number -
Tags generated
Created
Modified
Stats Distance 205 nm / 380 km
Max Altitude 26,500 ft / 8,077 m
Waypoints 4
Social Downloads 2
Likes 0
Share VATSIM

Download

Looking for another format? Having issues loading an existing format? Contact us
Advertisement - Login to hide

Notes

Basic altitude profile: - Ascent Rate: 2500ft/min - Ascent Speed: 250kts - Cruise Altitude: 35000ft - Cruise Speed: 420kts - Descent Rate: 1500ft/min - Descent Speed: 250kts Options: - Use NATs: yes - Use PACOTS: yes - Use low airways: yes - Use high airways: yes

Route

OERK MITSO W23 SIBLI OEPA

ID Type Via Altitude Latitude Longitude Leg Dist Tot Dist Heading (true) Name
O OERK APT - 0 ft / 0 m 24.95745˚ 46.69884˚ - 0 nm - Riyadh King Khaled Intl
MITSO FIX - 26,500 ft / 8,077 m 26.29750˚ 46.50583˚ 81 nm 81 nm 353° / 353° -
SIBLI FIX W23 (AWY-HI) 18,500 ft / 5,639 m 26.91639˚ 46.39278˚ 37 nm 118 nm 351° / 351° -
O OEPA APT - 0 ft / 0 m 28.33523˚ 46.12494˚ 86 nm 205 nm 351° / 350° QAISUMAH

Altitude Profile

Advertisement - Login to hide

Weather


0- 5 10 15 20 25 30 35+ Temperature / ° C

Clouds and Precipitation
Forecast for 2017-12-18 12:00 UTC. Updated a minute ago

Ground ~20,000 ft ~40,000 ft Winds

OERK

Details ICAO OERK (RUH)
Name Riyadh King Khaled Intl
Region Saudi Arabia
Timezone Asia/Riyadh (UTC+3.0)
Stats Elevation 2,049 ft / 625 m (AMSL)
Location 24.957449° 46.698842°
Runways 2
Magnetic Variation 3.042° E

METAR

OERK 181100Z 04004KT CAVOK 19/05 Q1025 NOSIG

Decode

TAF

TAF OERK 180400Z 1806/1912 04012KT 7000 FEW040 TEMPO 1806/1814 4000 BLDU

Decode

Departure Runways

ID Width Length Bearing (true) Bearing (mag) Surface Threshold Offset Overrun Length
15L 197 ft / 60 m 13,832 ft / 4,216 m 150.17° 147.13° Asphalt 0 ft / 0 m 385 ft / 117 m
15R 197 ft / 60 m 13,835 ft / 4,217 m 150.16° 147.12° Asphalt 0 ft / 0 m 385 ft / 117 m
33L 197 ft / 60 m 13,835 ft / 4,217 m 330.17° 327.13° Asphalt 0 ft / 0 m 385 ft / 117 m
33R 197 ft / 60 m 13,832 ft / 4,216 m 330.18° 327.14° Asphalt 0 ft / 0 m 385 ft / 117 m

OEPA

Details ICAO OEPA (AQI)
Name QAISUMAH
Region Saudi Arabia
Timezone Asia/Riyadh (UTC+3.0)
Stats Elevation 1,174 ft / 358 m (AMSL)
Location 28.335234° 46.124936°
Runways 1
Magnetic Variation 3.615° E

METAR

OEPA 181100Z 31005KT CAVOK 20/02 Q1024 NOSIG

Decode

TAF

Not found

Destination Runways

ID Width Length Bearing (true) Bearing (mag) Surface Threshold Offset Overrun Length
16 148 ft / 45 m 9,858 ft / 3,005 m 158.31° 154.70° Asphalt 0 ft / 0 m 197 ft / 60 m
34 148 ft / 45 m 9,858 ft / 3,005 m 338.31° 334.70° Asphalt 0 ft / 0 m 197 ft / 60 m

Popular Alternatives